Time;durP1;ratioP1;P1;durP2;ratioP2;P2;SDS_P1;SDS_P2;PMS_P1;PMS_P2;Temp;Humidity;BMP_temperature;BMP_pressure;BME280_temperature;BME280_humidity;BME280_pressure;Samples;Min_cycle;Max_cycle;Signal;HPM_P1;HPM_P2
2021/05/08 00:02:07;;;;;;;4.07;3.65;;;;;;;;;;5013712;28;20583;-81
2021/05/08 00:04:35;;;;;;;3.65;3.33;;;;;;;;;;5014504;28;20183;-81
2021/05/08 00:07:02;;;;;;;4.40;4.00;;;;;;;;;;5013809;28;20288;-81
2021/05/08 00:09:29;;;;;;;3.17;2.90;;;;;;;;;;5013685;28;20275;-81
2021/05/08 00:11:56;;;;;;;3.30;3.00;;;;;;;;;;5014247;28;20222;-81
2021/05/08 00:14:24;;;;;;;4.28;3.97;;;;;;;;;;5013993;28;20199;-81
2021/05/08 00:16:51;;;;;;;3.20;3.00;;;;;;;;;;5013799;28;20221;-81
2021/05/08 00:19:18;;;;;;;3.80;3.47;;;;;;;;;;5014505;28;20203;-81
2021/05/08 00:21:45;;;;;;;4.25;3.83;;;;;;;;;;5013525;28;20210;-81
2021/05/08 00:24:12;;;;;;;4.45;4.03;;;;;;;;;;5014227;28;20207;-81
2021/05/08 00:26:39;;;;;;;6.40;3.33;;;;;;;;;;5014259;28;20669;-81
2021/05/08 00:29:06;;;;;;;3.97;3.10;;;;;;;;;;5014480;28;20210;-81
2021/05/08 00:31:33;;;;;;;3.25;3.05;;;;;;;;;;5014246;28;20242;-81
2021/05/08 00:34:00;;;;;;;7.80;3.70;;;;;;;;;;5014017;28;20207;-81
2021/05/08 00:36:27;;;;;;;5.38;3.72;;;;;;;;;;5014132;28;20266;-81
2021/05/08 00:38:54;;;;;;;4.32;3.92;;;;;;;;;;5014157;28;20590;-81
2021/05/08 00:41:21;;;;;;;3.80;3.50;;;;;;;;;;5014225;28;20196;-81
2021/05/08 00:43:55;;;;;;;3.88;3.50;;;;;;;;;;5013963;28;20203;-81
2021/05/08 00:46:22;;;;;;;4.15;3.75;;;;;;;;;;5014399;28;20207;-81
2021/05/08 00:48:49;;;;;;;4.63;4.22;;;;;;;;;;5017475;28;20309;-81
2021/05/08 00:51:16;;;;;;;4.00;3.70;;;;;;;;;;5017578;28;20225;-81
2021/05/08 00:53:43;;;;;;;4.10;3.67;;;;;;;;;;5017574;28;20234;-81
2021/05/08 00:56:10;;;;;;;3.70;3.40;;;;;;;;;;5017761;28;20214;-82
2021/05/08 00:58:37;;;;;;;3.50;3.20;;;;;;;;;;5018042;28;20733;-81
2021/05/08 01:01:04;;;;;;;3.90;3.53;;;;;;;;;;5017800;28;20301;-81
2021/05/08 01:03:31;;;;;;;4.38;3.63;;;;;;;;;;5017029;28;20215;-81
2021/05/08 01:05:58;;;;;;;3.92;3.53;;;;;;;;;;5017211;28;20611;-81
2021/05/08 01:08:25;;;;;;;4.32;4.03;;;;;;;;;;5017570;28;20246;-82
2021/05/08 01:10:53;;;;;;;4.65;4.18;;;;;;;;;;5017929;28;20225;-81
2021/05/08 01:13:21;;;;;;;4.30;3.40;;;;;;;;;;5017818;28;20207;-81
2021/05/08 01:15:48;;;;;;;4.72;3.90;;;;;;;;;;5017745;28;20214;-81
2021/05/08 01:18:15;;;;;;;5.20;3.72;;;;;;;;;;5017472;28;20243;-81
2021/05/08 01:20:42;;;;;;;3.28;3.03;;;;;;;;;;5016688;28;20210;-80
2021/05/08 01:23:10;;;;;;;4.35;3.85;;;;;;;;;;5017364;28;20191;-81
2021/05/08 01:25:37;;;;;;;4.18;3.88;;;;;;;;;;5017317;28;20206;-81
2021/05/08 01:28:04;;;;;;;4.47;4.07;;;;;;;;;;5016920;28;20234;-81
2021/05/08 01:30:35;;;;;;;4.30;4.00;;;;;;;;;;5016755;28;20210;-81
2021/05/08 01:33:03;;;;;;;4.32;3.92;;;;;;;;;;5017358;28;20230;-81
2021/05/08 01:35:30;;;;;;;4.68;4.00;;;;;;;;;;5017422;28;20214;-81
2021/05/08 01:37:59;;;;;;;4.50;4.03;;;;;;;;;;5017141;28;20313;-81
2021/05/08 01:40:28;;;;;;;5.10;3.83;;;;;;;;;;5017422;28;20210;-81
2021/05/08 01:42:55;;;;;;;4.53;4.13;;;;;;;;;;5017945;28;20198;-81
2021/05/08 01:45:24;;;;;;;5.07;4.50;;;;;;;;;;5017225;28;20207;-81
2021/05/08 01:47:52;;;;;;;4.07;3.70;;;;;;;;;;5017148;28;20736;-81
2021/05/08 01:50:21;;;;;;;4.43;4.03;;;;;;;;;;5017127;28;20183;-81
2021/05/08 01:52:48;;;;;;;5.28;4.35;;;;;;;;;;5017524;28;20219;-81
2021/05/08 01:55:18;;;;;;;4.78;4.28;;;;;;;;;;5018066;28;20203;-81
2021/05/08 01:57:48;;;;;;;4.75;4.35;;;;;;;;;;5017200;28;20230;-81
2021/05/08 02:00:19;;;;;;;4.00;3.67;;;;;;;;;;5017644;28;20214;-81
2021/05/08 02:02:47;;;;;;;4.30;3.90;;;;;;;;;;5016800;28;20203;-81
2021/05/08 02:05:14;;;;;;;4.47;4.18;;;;;;;;;;5016674;28;20202;-81
2021/05/08 02:07:41;;;;;;;4.22;3.83;;;;;;;;;;5017245;28;20231;-81
2021/05/08 02:10:11;;;;;;;5.90;5.38;;;;;;;;;;5017259;28;20211;-81
2021/05/08 02:12:38;;;;;;;4.85;4.45;;;;;;;;;;5016863;28;20342;-81
2021/05/08 02:15:08;;;;;;;4.70;4.30;;;;;;;;;;5018005;28;20199;-81
2021/05/08 02:17:36;;;;;;;4.93;4.43;;;;;;;;;;5016951;28;20223;-81
2021/05/08 02:20:06;;;;;;;4.35;3.92;;;;;;;;;;5017768;28;20217;-81
2021/05/08 02:22:33;;;;;;;4.22;3.83;;;;;;;;;;5017641;28;20215;-81
2021/05/08 02:24:59;;;;;;;4.88;4.45;;;;;;;;;;5017236;28;20203;-81
2021/05/08 02:27:26;;;;;;;5.95;5.18;;;;;;;;;;5017940;28;20226;-81
2021/05/08 02:29:53;;;;;;;4.10;3.70;;;;;;;;;;5017741;28;20203;-81
2021/05/08 02:32:21;;;;;;;4.07;3.78;;;;;;;;;;5016722;28;20227;-81
2021/05/08 02:34:47;;;;;;;5.20;4.70;;;;;;;;;;5016235;28;20214;-80
2021/05/08 02:37:14;;;;;;;4.75;4.25;;;;;;;;;;5016740;28;20232;-81
2021/05/08 02:39:41;;;;;;;4.95;4.50;;;;;;;;;;5018221;28;20207;-81
2021/05/08 02:42:08;;;;;;;4.47;4.18;;;;;;;;;;5019720;28;20207;-81
2021/05/08 02:44:35;;;;;;;4.78;4.40;;;;;;;;;;5021092;28;20209;-80
2021/05/08 02:47:01;;;;;;;5.35;4.82;;;;;;;;;;5020674;28;20223;-80
2021/05/08 02:49:29;;;;;;;5.38;4.93;;;;;;;;;;5020786;28;20207;-80
2021/05/08 02:51:56;;;;;;;5.07;4.68;;;;;;;;;;5020498;28;20234;-80
2021/05/08 02:54:23;;;;;;;5.40;4.80;;;;;;;;;;5020253;28;20198;-81
2021/05/08 02:56:49;;;;;;;5.63;5.07;;;;;;;;;;5021403;28;20206;-81
2021/05/08 02:59:16;;;;;;;6.18;5.05;;;;;;;;;;5018185;28;20206;-80
2021/05/08 03:01:43;;;;;;;5.05;4.57;;;;;;;;;;5013396;28;20207;-80
2021/05/08 03:04:10;;;;;;;5.78;5.18;;;;;;;;;;5012679;28;20265;-80
2021/05/08 03:06:37;;;;;;;5.28;4.78;;;;;;;;;;5012501;28;20210;-80
2021/05/08 03:09:05;;;;;;;6.32;5.72;;;;;;;;;;5012773;28;20207;-80
2021/05/08 03:11:31;;;;;;;5.63;5.13;;;;;;;;;;5011992;28;20210;-80
2021/05/08 03:13:58;;;;;;;5.70;4.78;;;;;;;;;;5012667;28;20230;-81
2021/05/08 03:16:26;;;;;;;5.88;5.35;;;;;;;;;;5012593;28;20207;-80
2021/05/08 03:18:53;;;;;;;5.55;5.00;;;;;;;;;;5012657;28;20223;-80
2021/05/08 03:21:20;;;;;;;5.72;5.13;;;;;;;;;;5012980;28;20228;-80
2021/05/08 03:23:47;;;;;;;6.65;5.90;;;;;;;;;;5012714;28;20431;-79
2021/05/08 03:26:14;;;;;;;5.53;5.03;;;;;;;;;;5012493;28;20681;-80
2021/05/08 03:28:41;;;;;;;6.10;5.47;;;;;;;;;;5012155;28;20627;-80
2021/05/08 03:31:08;;;;;;;5.88;5.38;;;;;;;;;;5012519;28;20580;-80
2021/05/08 03:33:34;;;;;;;5.63;5.13;;;;;;;;;;5011676;28;20230;-80
2021/05/08 03:36:01;;;;;;;5.90;5.30;;;;;;;;;;5012745;28;20202;-80
2021/05/08 03:38:28;;;;;;;5.53;5.13;;;;;;;;;;5012019;28;20218;-80
2021/05/08 03:40:56;;;;;;;5.43;4.90;;;;;;;;;;5013114;28;20207;-79
2021/05/08 03:43:23;;;;;;;6.07;5.57;;;;;;;;;;5012651;28;20207;-81
2021/05/08 03:45:50;;;;;;;6.57;5.55;;;;;;;;;;5012399;28;20207;-80
2021/05/08 03:48:17;;;;;;;6.13;5.53;;;;;;;;;;5012805;28;20229;-80
2021/05/08 03:50:44;;;;;;;5.88;5.32;;;;;;;;;;5012622;28;20249;-80
2021/05/08 03:53:11;;;;;;;5.82;5.32;;;;;;;;;;5012512;28;20230;-80
2021/05/08 03:55:39;;;;;;;6.05;5.50;;;;;;;;;;5012631;28;20210;-80
2021/05/08 03:58:07;;;;;;;6.53;5.82;;;;;;;;;;5012531;28;20223;-80
2021/05/08 04:00:34;;;;;;;7.00;6.25;;;;;;;;;;5012237;28;20207;-80
2021/05/08 04:03:01;;;;;;;5.70;5.20;;;;;;;;;;5012858;28;20210;-80
2021/05/08 04:05:29;;;;;;;6.13;5.38;;;;;;;;;;5012752;28;20210;-80
2021/05/08 04:07:55;;;;;;;6.28;5.68;;;;;;;;;;5012545;28;20239;-80
2021/05/08 04:10:22;;;;;;;5.80;5.20;;;;;;;;;;5012541;28;20199;-80
2021/05/08 04:12:49;;;;;;;6.88;5.40;;;;;;;;;;5012113;28;20225;-80
2021/05/08 04:15:17;;;;;;;5.28;4.80;;;;;;;;;;5012679;28;20215;-80
2021/05/08 04:17:44;;;;;;;6.20;5.03;;;;;;;;;;5012212;28;20712;-81
2021/05/08 04:20:12;;;;;;;6.57;5.07;;;;;;;;;;5012781;28;20203;-80
2021/05/08 04:22:39;;;;;;;5.90;4.90;;;;;;;;;;5015688;28;20199;-80
2021/05/08 04:25:06;;;;;;;5.55;5.05;;;;;;;;;;5016433;28;20222;-81
2021/05/08 04:27:33;;;;;;;5.90;4.93;;;;;;;;;;5016062;28;20219;-80
2021/05/08 04:30:00;;;;;;;5.10;4.70;;;;;;;;;;5016390;28;20207;-80
2021/05/08 04:32:27;;;;;;;4.57;4.15;;;;;;;;;;5016196;28;20222;-80
2021/05/08 04:34:55;;;;;;;5.63;4.45;;;;;;;;;;5016172;28;20693;-80
2021/05/08 04:37:22;;;;;;;5.57;4.55;;;;;;;;;;5015971;28;20586;-80
2021/05/08 04:39:49;;;;;;;4.57;3.97;;;;;;;;;;5016164;28;20260;-80
2021/05/08 04:42:16;;;;;;;5.57;4.65;;;;;;;;;;5015744;28;20225;-80
2021/05/08 04:44:42;;;;;;;4.90;4.30;;;;;;;;;;5016027;28;20225;-80
2021/05/08 04:47:12;;;;;;;5.32;4.18;;;;;;;;;;5015778;28;20717;-80
2021/05/08 04:49:40;;;;;;;4.63;4.10;;;;;;;;;;5015911;28;20253;-80
2021/05/08 04:52:07;;;;;;;5.50;4.97;;;;;;;;;;5015746;28;20265;-80
2021/05/08 04:54:34;;;;;;;5.07;4.57;;;;;;;;;;5015804;28;20226;-80
2021/05/08 04:57:01;;;;;;;5.50;5.05;;;;;;;;;;5015336;28;20223;-80
2021/05/08 04:59:28;;;;;;;6.35;5.75;;;;;;;;;;5015268;28;20207;-80
2021/05/08 05:01:55;;;;;;;4.93;4.43;;;;;;;;;;5015464;28;20207;-80
2021/05/08 05:04:21;;;;;;;6.45;5.80;;;;;;;;;;5015587;28;20203;-80
2021/05/08 05:06:49;;;;;;;5.65;5.05;;;;;;;;;;5015259;28;20203;-81
2021/05/08 05:09:16;;;;;;;6.32;4.60;;;;;;;;;;5015644;28;20210;-80
2021/05/08 05:11:43;;;;;;;5.25;4.68;;;;;;;;;;5015675;28;20207;-80
2021/05/08 05:14:10;;;;;;;5.55;5.05;;;;;;;;;;5015730;28;20223;-80
2021/05/08 05:16:36;;;;;;;6.50;5.38;;;;;;;;;;5015955;28;20206;-81
2021/05/08 05:19:04;;;;;;;5.00;4.60;;;;;;;;;;5015511;28;20674;-81
2021/05/08 05:21:31;;;;;;;5.03;4.45;;;;;;;;;;5015673;28;20210;-81
2021/05/08 05:23:59;;;;;;;5.07;4.68;;;;;;;;;;5015582;28;20210;-80
2021/05/08 05:26:26;;;;;;;5.68;5.18;;;;;;;;;;5016692;28;20199;-80
2021/05/08 05:28:54;;;;;;;4.68;4.28;;;;;;;;;;5015991;28;20230;-81
2021/05/08 05:31:21;;;;;;;4.72;4.20;;;;;;;;;;5015525;28;20214;-81
2021/05/08 05:33:47;;;;;;;5.63;4.97;;;;;;;;;;5014745;28;20223;-81
2021/05/08 05:36:14;;;;;;;5.05;4.57;;;;;;;;;;5015428;28;20218;-80
2021/05/08 05:38:42;;;;;;;6.10;5.53;;;;;;;;;;5015594;28;20597;-81
2021/05/08 05:41:10;;;;;;;5.88;5.25;;;;;;;;;;5016497;28;20290;-81
2021/05/08 05:43:37;;;;;;;5.00;4.50;;;;;;;;;;5015036;28;20199;-81
2021/05/08 05:46:04;;;;;;;5.70;4.82;;;;;;;;;;5016291;28;20214;-81
2021/05/08 05:48:31;;;;;;;4.82;4.43;;;;;;;;;;5015040;28;20738;-82
2021/05/08 05:50:57;;;;;;;4.65;4.25;;;;;;;;;;5015120;28;20203;-81
2021/05/08 05:53:24;;;;;;;4.93;4.53;;;;;;;;;;5014691;28;20253;-80
2021/05/08 05:55:51;;;;;;;6.20;4.75;;;;;;;;;;5014997;28;20202;-81
2021/05/08 05:58:19;;;;;;;5.35;4.10;;;;;;;;;;5015265;28;20250;-81
2021/05/08 06:00:46;;;;;;;4.63;4.28;;;;;;;;;;5014396;28;20577;-81
2021/05/08 06:03:12;;;;;;;5.03;4.63;;;;;;;;;;5015209;28;20198;-81
2021/05/08 06:05:39;;;;;;;5.00;4.60;;;;;;;;;;5014746;28;20214;-82
2021/05/08 06:08:06;;;;;;;3.53;3.22;;;;;;;;;;5014424;28;20235;-81
2021/05/08 06:10:33;;;;;;;4.80;4.50;;;;;;;;;;5014053;28;20218;-81
2021/05/08 06:13:00;;;;;;;4.60;4.05;;;;;;;;;;5014630;28;20277;-81
2021/05/08 06:15:27;;;;;;;4.68;4.10;;;;;;;;;;5014317;28;20207;-82
2021/05/08 06:17:54;;;;;;;3.50;3.30;;;;;;;;;;5014756;28;20234;-82
2021/05/08 06:20:21;;;;;;;4.05;3.72;;;;;;;;;;5014802;28;20209;-81
2021/05/08 06:22:48;;;;;;;4.10;3.70;;;;;;;;;;5014722;28;20210;-82
2021/05/08 06:25:15;;;;;;;4.07;3.60;;;;;;;;;;5014424;28;20211;-82
2021/05/08 06:27:42;;;;;;;4.47;3.65;;;;;;;;;;5014145;28;20223;-82
2021/05/08 06:30:10;;;;;;;3.92;3.38;;;;;;;;;;5014861;28;20587;-82
2021/05/08 06:32:38;;;;;;;3.97;3.53;;;;;;;;;;5014780;28;20203;-82
2021/05/08 06:35:06;;;;;;;3.80;3.50;;;;;;;;;;5013353;28;20223;-82
2021/05/08 06:37:33;;;;;;;4.30;3.90;;;;;;;;;;5012904;28;20229;-81
2021/05/08 06:40:00;;;;;;;3.75;3.45;;;;;;;;;;5013525;28;20619;-82
2021/05/08 06:42:27;;;;;;;3.50;3.20;;;;;;;;;;5013290;28;20210;-82
2021/05/08 06:44:54;;;;;;;3.97;3.55;;;;;;;;;;5013341;28;20309;-82
2021/05/08 06:47:21;;;;;;;3.17;2.97;;;;;;;;;;5013322;28;20222;-82
2021/05/08 06:49:48;;;;;;;3.53;3.22;;;;;;;;;;5014207;28;20569;-82
2021/05/08 06:52:15;;;;;;;3.95;3.65;;;;;;;;;;5013517;28;20214;-82
2021/05/08 06:54:42;;;;;;;3.55;3.25;;;;;;;;;;5013569;28;20230;-82
2021/05/08 06:57:09;;;;;;;3.47;3.17;;;;;;;;;;5013410;28;20227;-82
2021/05/08 06:59:35;;;;;;;3.85;3.53;;;;;;;;;;5013834;28;20215;-82
2021/05/08 07:02:05;;;;;;;3.50;3.20;;;;;;;;;;5013840;28;20207;-82
2021/05/08 07:04:32;;;;;;;4.53;3.20;;;;;;;;;;5013766;28;20717;-82
2021/05/08 07:06:59;;;;;;;3.20;2.90;;;;;;;;;;5013591;28;20246;-83
2021/05/08 07:09:26;;;;;;;4.82;3.63;;;;;;;;;;5013446;28;20210;-82
2021/05/08 07:11:54;;;;;;;3.92;3.40;;;;;;;;;;5014069;28;20199;-83
2021/05/08 07:14:21;;;;;;;3.88;3.47;;;;;;;;;;5013447;28;20608;-82
2021/05/08 07:16:48;;;;;;;3.55;3.17;;;;;;;;;;5013752;28;20214;-83
2021/05/08 07:19:14;;;;;;;4.15;3.75;;;;;;;;;;5013726;28;20237;-83
2021/05/08 07:21:41;;;;;;;4.25;3.85;;;;;;;;;;5012614;28;20214;-83
2021/05/08 07:24:10;;;;;;;4.78;4.28;;;;;;;;;;5011944;28;20199;-83
2021/05/08 07:26:37;;;;;;;4.35;3.63;;;;;;;;;;5013992;28;20183;-83
2021/05/08 07:29:04;;;;;;;3.58;3.28;;;;;;;;;;5013663;28;20198;-83
2021/05/08 07:31:35;;;;;;;3.80;3.50;;;;;;;;;;5013008;28;20210;-83
2021/05/08 07:34:02;;;;;;;3.70;3.38;;;;;;;;;;5013141;28;20697;-83
2021/05/08 07:36:29;;;;;;;4.95;4.47;;;;;;;;;;5012893;28;20261;-83
2021/05/08 07:38:56;;;;;;;3.80;3.50;;;;;;;;;;5012672;28;20227;-83
2021/05/08 07:41:24;;;;;;;3.58;3.28;;;;;;;;;;5012179;28;20199;-83
2021/05/08 07:43:51;;;;;;;4.05;3.65;;;;;;;;;;5013156;28;20210;-83
2021/05/08 07:46:18;;;;;;;3.50;3.08;;;;;;;;;;5013155;28;20199;-82
2021/05/08 07:48:45;;;;;;;3.67;3.38;;;;;;;;;;5013006;28;20230;-82
2021/05/08 07:51:11;;;;;;;4.15;3.60;;;;;;;;;;5013558;28;20206;-83
2021/05/08 07:53:40;;;;;;;6.13;4.35;;;;;;;;;;5013566;28;20191;-85
2021/05/08 07:56:18;;;;;;;4.20;3.53;;;;;;;;;;5012619;28;20202;-84
2021/05/08 07:58:45;;;;;;;4.05;3.53;;;;;;;;;;5013471;28;20219;-83
2021/05/08 08:01:12;;;;;;;4.57;3.95;;;;;;;;;;5012668;28;20207;-83
2021/05/08 08:03:39;;;;;;;4.38;3.55;;;;;;;;;;5012652;28;20748;-83
2021/05/08 08:06:06;;;;;;;3.90;3.50;;;;;;;;;;5012776;28;20199;-82
2021/05/08 08:08:33;;;;;;;3.97;3.60;;;;;;;;;;5013184;28;20257;-83
2021/05/08 08:11:00;;;;;;;4.57;3.45;;;;;;;;;;5012965;28;20229;-83
2021/05/08 08:13:27;;;;;;;3.90;3.60;;;;;;;;;;5013575;28;20653;-82
2021/05/08 08:15:54;;;;;;;5.38;4.15;;;;;;;;;;5014147;28;20231;-81
2021/05/08 08:18:22;;;;;;;4.22;3.80;;;;;;;;;;5014084;28;20591;-84
2021/05/08 08:20:49;;;;;;;5.03;3.50;;;;;;;;;;5013356;28;20692;-81
2021/05/08 08:23:16;;;;;;;4.07;3.70;;;;;;;;;;5013521;28;20591;-82
2021/05/08 08:25:43;;;;;;;4.15;3.60;;;;;;;;;;5012680;28;20286;-82
2021/05/08 08:28:09;;;;;;;3.72;3.42;;;;;;;;;;5013796;28;20231;-82
2021/05/08 08:30:37;;;;;;;4.35;3.95;;;;;;;;;;5013352;28;20195;-83
2021/05/08 08:33:04;;;;;;;5.15;4.10;;;;;;;;;;5013051;28;20661;-83
2021/05/08 08:35:31;;;;;;;3.97;3.63;;;;;;;;;;5012884;28;20223;-83
2021/05/08 08:37:58;;;;;;;5.00;4.60;;;;;;;;;;5012712;28;20708;-83
2021/05/08 08:40:25;;;;;;;5.32;4.78;;;;;;;;;;5013306;28;20210;-83
2021/05/08 08:42:52;;;;;;;4.28;3.88;;;;;;;;;;5013154;28;20565;-83
2021/05/08 08:45:19;;;;;;;3.90;3.55;;;;;;;;;;5012785;28;20203;-82
2021/05/08 08:47:46;;;;;;;4.22;3.83;;;;;;;;;;5013093;28;20289;-82
2021/05/08 08:50:15;;;;;;;4.47;4.07;;;;;;;;;;5012988;28;20199;-82
2021/05/08 08:52:42;;;;;;;5.05;4.55;;;;;;;;;;5013142;28;20666;-82
2021/05/08 08:55:11;;;;;;;4.60;4.18;;;;;;;;;;5012827;28;20234;-82
2021/05/08 08:57:40;;;;;;;5.22;4.30;;;;;;;;;;5013348;28;20226;-83
2021/05/08 09:00:12;;;;;;;4.60;4.10;;;;;;;;;;5013261;28;20191;-82
2021/05/08 09:02:40;;;;;;;4.68;4.28;;;;;;;;;;5012578;28;20207;-82
2021/05/08 09:05:09;;;;;;;4.00;3.63;;;;;;;;;;5012944;28;20199;-83
2021/05/08 09:07:37;;;;;;;4.00;3.70;;;;;;;;;;5012991;28;20296;-83
2021/05/08 09:10:07;;;;;;;4.22;3.90;;;;;;;;;;5019091;28;20199;-83
2021/05/08 09:12:45;;;;;;;4.78;4.38;;;;;;;;;;5016590;28;20195;-82
2021/05/08 09:15:13;;;;;;;5.25;4.75;;;;;;;;;;5015804;28;20230;-83
2021/05/08 09:17:44;;;;;;;4.78;4.38;;;;;;;;;;5016677;28;20747;-83
2021/05/08 09:20:12;;;;;;;4.25;3.42;;;;;;;;;;5016527;28;20229;-83
2021/05/08 09:22:42;;;;;;;6.05;4.43;;;;;;;;;;5016461;28;20245;-82
2021/05/08 09:25:12;;;;;;;4.03;3.72;;;;;;;;;;5016239;28;20211;-82
2021/05/08 09:27:46;;;;;;;6.00;4.70;;;;;;;;;;5016444;28;20230;-82
2021/05/08 09:30:18;;;;;;;4.32;3.90;;;;;;;;;;5016773;28;20256;-82
2021/05/08 09:32:47;;;;;;;3.70;3.40;;;;;;;;;;5016200;28;20619;-82
2021/05/08 09:35:18;;;;;;;4.53;4.13;;;;;;;;;;5015675;28;20223;-81
2021/05/08 09:37:47;;;;;;;4.28;3.97;;;;;;;;;;5015990;28;20227;-82
2021/05/08 09:40:23;;;;;;;4.43;4.07;;;;;;;;;;5016240;28;20256;-82
2021/05/08 09:42:53;;;;;;;4.18;3.80;;;;;;;;;;5015734;28;20695;-81
2021/05/08 09:45:21;;;;;;;5.45;3.45;;;;;;;;;;5015947;28;20192;-81
2021/05/08 09:47:49;;;;;;;5.22;4.82;;;;;;;;;;5016048;28;20281;-81
2021/05/08 09:50:19;;;;;;;4.57;3.88;;;;;;;;;;5016217;28;20191;-81
2021/05/08 09:52:51;;;;;;;4.07;3.67;;;;;;;;;;5015523;28;20218;-82
2021/05/08 09:55:20;;;;;;;3.95;3.38;;;;;;;;;;5015128;28;20203;-82
2021/05/08 09:58:11;;;;;;;3.97;3.67;;;;;;;;;;5015109;28;20250;-82
2021/05/08 10:00:39;;;;;;;3.83;3.53;;;;;;;;;;5000157;28;20199;-82
2021/05/08 10:03:13;;;;;;;3.00;2.80;;;;;;;;;;5015213;28;20191;-82
2021/05/08 10:05:40;;;;;;;3.92;3.42;;;;;;;;;;5015526;28;20276;-82
2021/05/08 10:08:10;;;;;;;4.70;3.15;;;;;;;;;;5015049;28;20330;-82
2021/05/08 10:10:37;;;;;;;2.92;2.63;;;;;;;;;;5015534;28;20574;-82
2021/05/08 10:13:09;;;;;;;3.75;3.40;;;;;;;;;;5015993;28;20265;-82
2021/05/08 10:15:39;;;;;;;3.15;2.95;;;;;;;;;;5015159;28;20211;-82
2021/05/08 10:18:08;;;;;;;3.40;3.10;;;;;;;;;;5015582;28;20218;-81
2021/05/08 10:20:36;;;;;;;3.22;2.90;;;;;;;;;;5015294;28;20644;-82
2021/05/08 10:23:08;;;;;;;3.45;3.15;;;;;;;;;;5014990;28;20187;-82
2021/05/08 10:25:37;;;;;;;3.17;2.97;;;;;;;;;;5015398;28;20183;-81
2021/05/08 10:28:04;;;;;;;3.17;2.97;;;;;;;;;;5015218;28;20223;-82
2021/05/08 10:30:35;;;;;;;6.13;2.90;;;;;;;;;;5014681;28;20203;-82
2021/05/08 10:33:08;;;;;;;3.22;2.92;;;;;;;;;;5016152;28;20213;-82
2021/05/08 10:35:42;;;;;;;3.90;3.25;;;;;;;;;;5015463;28;20210;-82
2021/05/08 10:38:22;;;;;;;4.00;3.03;;;;;;;;;;5015311;28;20273;-81
2021/05/08 10:40:51;;;;;;;3.28;2.53;;;;;;;;;;5015156;28;20207;-82
2021/05/08 10:43:46;;;;;;;3.75;2.42;;;;;;;;;;5015202;28;20187;-82
2021/05/08 10:46:14;;;;;;;3.30;3.03;;;;;;;;;;5015095;28;20548;-82
2021/05/08 10:49:18;;;;;;;3.83;3.50;;;;;;;;;;5014874;28;20226;-81
2021/05/08 10:51:58;;;;;;;2.55;2.13;;;;;;;;;;5014776;28;20691;-82
2021/05/08 10:54:56;;;;;;;5.65;2.22;;;;;;;;;;5014683;28;20579;-82
2021/05/08 10:57:26;;;;;;;2.33;2.22;;;;;;;;;;4980782;28;20231;-82
2021/05/08 11:00:26;;;;;;;2.50;2.20;;;;;;;;;;5015428;28;20557;-83
2021/05/08 11:03:01;;;;;;;2.00;1.90;;;;;;;;;;4954391;29;20181;-82
2021/05/08 11:05:31;;;;;;;4.22;2.05;;;;;;;;;;4953659;29;20200;-82
2021/05/08 11:07:58;;;;;;;2.03;1.92;;;;;;;;;;4985220;28;20751;-82
2021/05/08 11:10:44;;;;;;;2.67;2.10;;;;;;;;;;5014063;28;20265;-82
2021/05/08 11:13:13;;;;;;;3.22;2.35;;;;;;;;;;5014014;28;20203;-83
2021/05/08 11:16:11;;;;;;;1.58;1.48;;;;;;;;;;5014839;28;20230;-82
2021/05/08 11:18:40;;;;;;;3.55;2.60;;;;;;;;;;5002170;28;20230;-83
2021/05/08 11:22:04;;;;;;;2.00;1.73;;;;;;;;;;5014818;28;20190;-83
2021/05/08 11:24:41;;;;;;;5.60;2.08;;;;;;;;;;4934368;29;20209;-83
2021/05/08 11:27:26;;;;;;;2.53;2.33;;;;;;;;;;5007298;28;20795;-82
2021/05/08 11:29:55;;;;;;;2.38;2.17;;;;;;;;;;5014909;28;20199;-82
2021/05/08 11:32:22;;;;;;;2.83;2.60;;;;;;;;;;5012564;28;20207;-82
2021/05/08 11:34:52;;;;;;;2.83;2.63;;;;;;;;;;5014069;28;20203;-83
2021/05/08 11:37:22;;;;;;;2.10;2.00;;;;;;;;;;5013368;28;20219;-83
2021/05/08 11:39:49;;;;;;;3.38;3.08;;;;;;;;;;5015143;28;20210;-83
2021/05/08 11:42:18;;;;;;;2.92;1.88;;;;;;;;;;5014418;28;20199;-83
2021/05/08 11:44:47;;;;;;;2.53;2.20;;;;;;;;;;5015005;28;20233;-83
2021/05/08 11:47:30;;;;;;;2.17;2.08;;;;;;;;;;5013442;28;20614;-82
2021/05/08 11:49:59;;;;;;;2.85;2.65;;;;;;;;;;5014670;28;20218;-83
2021/05/08 11:52:42;;;;;;;2.60;2.20;;;;;;;;;;5014724;28;20203;-82
2021/05/08 11:55:20;;;;;;;2.80;2.60;;;;;;;;;;5014713;28;20213;-82
2021/05/08 11:57:52;;;;;;;2.60;2.40;;;;;;;;;;5014233;28;20250;-83
2021/05/08 12:00:25;;;;;;;2.28;2.00;;;;;;;;;;5014464;28;20322;-82
2021/05/08 12:03:05;;;;;;;2.45;2.25;;;;;;;;;;5014422;28;20207;-82
2021/05/08 12:05:36;;;;;;;3.05;2.75;;;;;;;;;;5014557;28;20194;-83
2021/05/08 12:08:03;;;;;;;5.05;2.70;;;;;;;;;;5013937;28;20712;-81
2021/05/08 12:10:34;;;;;;;2.67;2.47;;;;;;;;;;5014797;28;20698;-82
2021/05/08 12:13:01;;;;;;;3.55;2.78;;;;;;;;;;5014233;28;20283;-82
2021/05/08 12:15:30;;;;;;;2.30;2.20;;;;;;;;;;5013674;28;20222;-82
2021/05/08 12:17:59;;;;;;;2.17;2.08;;;;;;;;;;5014178;28;20250;-82
2021/05/08 12:20:30;;;;;;;3.58;2.47;;;;;;;;;;5014700;28;20210;-82
2021/05/08 12:23:01;;;;;;;4.45;3.55;;;;;;;;;;5014062;28;20195;-82
2021/05/08 12:25:29;;;;;;;3.63;3.28;;;;;;;;;;5014458;28;20210;-82
2021/05/08 12:28:13;;;;;;;2.35;2.15;;;;;;;;;;5014475;28;20280;-81
2021/05/08 12:30:42;;;;;;;6.28;3.33;;;;;;;;;;5013752;28;20560;-83
2021/05/08 12:33:16;;;;;;;3.03;2.35;;;;;;;;;;5014045;28;20759;-82
2021/05/08 12:35:43;;;;;;;5.32;2.30;;;;;;;;;;5014518;28;20713;-82
2021/05/08 12:38:12;;;;;;;3.30;2.45;;;;;;;;;;5014649;28;20238;-82
2021/05/08 12:40:39;;;;;;;3.20;2.80;;;;;;;;;;5015027;28;20207;-82
2021/05/08 12:43:05;;;;;;;3.25;2.95;;;;;;;;;;5015824;28;20705;-82
2021/05/08 12:45:32;;;;;;;3.30;2.45;;;;;;;;;;5017189;28;20207;-83
2021/05/08 12:48:00;;;;;;;3.92;2.50;;;;;;;;;;5017864;28;20234;-82
2021/05/08 12:50:32;;;;;;;3.80;2.15;;;;;;;;;;5018024;28;20199;-83
2021/05/08 12:53:01;;;;;;;2.75;2.55;;;;;;;;;;5018365;28;20207;-82
2021/05/08 12:55:29;;;;;;;2.67;2.47;;;;;;;;;;5018183;28;20217;-82
2021/05/08 12:58:07;;;;;;;3.15;2.85;;;;;;;;;;5017419;28;20717;-82
2021/05/08 13:00:39;;;;;;;3.28;2.00;;;;;;;;;;5018485;28;20191;-82
2021/05/08 13:03:21;;;;;;;2.63;2.08;;;;;;;;;;5018095;28;20282;-82
2021/05/08 13:05:48;;;;;;;4.18;2.55;;;;;;;;;;5018373;28;20268;-83
2021/05/08 13:08:15;;;;;;;4.35;3.05;;;;;;;;;;5017739;28;20242;-83
2021/05/08 13:10:43;;;;;;;5.70;4.85;;;;;;;;;;5018157;28;20286;-83
2021/05/08 13:13:19;;;;;;;4.25;3.95;;;;;;;;;;5018487;28;20233;-82
2021/05/08 13:15:52;;;;;;;3.03;2.35;;;;;;;;;;5017711;28;20230;-83
2021/05/08 13:18:21;;;;;;;3.47;2.67;;;;;;;;;;5017658;28;20720;-83
2021/05/08 13:20:48;;;;;;;2.72;2.53;;;;;;;;;;5017694;28;20203;-83
2021/05/08 13:23:15;;;;;;;2.08;1.80;;;;;;;;;;5017767;28;20210;-83
2021/05/08 13:25:42;;;;;;;3.40;2.95;;;;;;;;;;5017870;28;20568;-83
2021/05/08 13:28:09;;;;;;;2.40;1.98;;;;;;;;;;5018443;28;20223;-83
2021/05/08 13:30:37;;;;;;;4.70;2.92;;;;;;;;;;5019129;28;20207;-82
2021/05/08 13:33:04;;;;;;;2.95;2.72;;;;;;;;;;5017728;28;20203;-81
2021/05/08 13:35:32;;;;;;;4.40;2.30;;;;;;;;;;5017734;28;20207;-83
2021/05/08 13:38:00;;;;;;;4.32;2.13;;;;;;;;;;5018116;28;20599;-82
2021/05/08 13:40:28;;;;;;;3.35;2.55;;;;;;;;;;5017866;28;20257;-82
2021/05/08 13:42:55;;;;;;;2.53;2.28;;;;;;;;;;5017184;28;20199;-82
2021/05/08 13:45:22;;;;;;;2.35;1.98;;;;;;;;;;5017158;28;20588;-82
2021/05/08 13:47:53;;;;;;;4.50;2.08;;;;;;;;;;5016668;28;20230;-83
2021/05/08 13:50:20;;;;;;;3.55;2.22;;;;;;;;;;5016740;28;20213;-83
2021/05/08 13:52:47;;;;;;;2.40;2.20;;;;;;;;;;5017274;28;20206;-83
2021/05/08 13:55:14;;;;;;;2.30;2.10;;;;;;;;;;5016051;28;20207;-83
2021/05/08 13:57:41;;;;;;;2.10;1.90;;;;;;;;;;5017136;28;20237;-83
2021/05/08 14:00:09;;;;;;;2.45;2.25;;;;;;;;;;5017826;28;20203;-83
2021/05/08 14:02:36;;;;;;;2.22;2.03;;;;;;;;;;5016319;28;20576;-82
2021/05/08 14:05:04;;;;;;;1.90;1.80;;;;;;;;;;5016706;28;20627;-82
2021/05/08 14:07:31;;;;;;;2.45;2.25;;;;;;;;;;5016739;28;20235;-82
2021/05/08 14:09:58;;;;;;;2.47;2.30;;;;;;;;;;5016583;28;20210;-82
2021/05/08 14:12:25;;;;;;;2.75;2.55;;;;;;;;;;5016956;28;20207;-82
2021/05/08 14:14:52;;;;;;;3.28;2.35;;;;;;;;;;5016401;28;20213;-81
2021/05/08 14:17:19;;;;;;;4.03;3.58;;;;;;;;;;5016876;28;20329;-82
2021/05/08 14:19:46;;;;;;;3.25;2.45;;;;;;;;;;5016784;28;20226;-82
2021/05/08 14:22:13;;;;;;;3.20;2.85;;;;;;;;;;5017031;28;20249;-82
2021/05/08 14:24:40;;;;;;;2.63;2.40;;;;;;;;;;5017008;28;20581;-81
2021/05/08 14:27:08;;;;;;;2.70;2.50;;;;;;;;;;5016741;28;20218;-81
2021/05/08 14:29:35;;;;;;;3.78;2.40;;;;;;;;;;5016951;28;20203;-81
2021/05/08 14:32:03;;;;;;;2.80;2.60;;;;;;;;;;5016801;28;20578;-81
2021/05/08 14:34:30;;;;;;;5.03;4.53;;;;;;;;;;5017037;28;20214;-81
2021/05/08 14:36:58;;;;;;;3.40;3.03;;;;;;;;;;5016884;28;20227;-80
2021/05/08 14:39:25;;;;;;;3.67;2.80;;;;;;;;;;5017417;28;20297;-81
2021/05/08 14:41:52;;;;;;;3.30;2.53;;;;;;;;;;5016822;28;20188;-80
2021/05/08 14:44:20;;;;;;;3.10;2.40;;;;;;;;;;5016722;28;20202;-80
2021/05/08 14:46:47;;;;;;;5.68;2.60;;;;;;;;;;5016407;28;20211;-80
2021/05/08 14:49:13;;;;;;;4.72;3.10;;;;;;;;;;5017016;28;20665;-80
2021/05/08 14:51:40;;;;;;;3.05;2.75;;;;;;;;;;5016347;28;20555;-80
2021/05/08 14:54:07;;;;;;;2.80;2.55;;;;;;;;;;5016248;28;20199;-80